Terminal Aerodrome Forecast
Issued by NWS

Current Version | Previous Version | Text Only | Print | Product List | Glossary On
Versions: 1 2 3 4 5 6 7 8 9 10 11 12 13 14 15 16 17
000
FTUS43 KDTX 291725
TAFYIP
TAF
KYIP 291725Z 2918/3018 21013G21KT P6SM SCT040
     FM292000 21013G21KT P6SM VCTS SCT040CB BKN050
     FM292300 27007KT P6SM SCT200
     FM301500 29010KT P6SM SCT050=

USA.gov is the U.S. government's official web portal to all federal, state and local government web resources and services.